This is the latest recevied weather packets stored in our database for station/object LU3HGB-WX. If no packets are shown the sender has not sent any weather packets the latest 1 day(s).
| Time | Temp. | Humidity | Pressure | Rain* | Wind** | Luminosity | Snow |
|---|---|---|---|---|---|---|---|
| 1778031460 | 13.89° C | 90% | 1013 hPa | 0 mm | - | 0 W/m² | - |
| 1778030859 | 13.89° C | 90% | 1013 hPa | 0 mm | - | 0 W/m² | - |
| 1778030563 | 14.44° C | 90% | 1013 hPa | 0 mm | - | 0 W/m² | - |
| 1778029359 | 15° C | 90% | 1013 hPa | 0 mm | - | 0 W/m² | - |
| 1778029060 | 15° C | 87% | 1013 hPa | 0 mm | - | 0 W/m² | - |
| 1778028760 | 15.56° C | 87% | 1013 hPa | 0 mm | - | 0 W/m² | - |
| 1778028460 | 15.56° C | 87% | 1013 hPa | 0 mm | - | 0 W/m² | - |
| 1778027859 | 16.11° C | 87% | 1013 hPa | 0 mm | - | 0 W/m² | - |
| 1778027560 | 16.11° C | 87% | 1013 hPa | 0 mm | - | 0 W/m² | - |
| 1778027260 | 16.11° C | 86% | 1013 hPa | 0 mm | - | 0 W/m² | - |
| 1778024859 | 15.56° C | 86% | 1013 hPa | 0 mm | - | 0 W/m² | - |
| 1778021561 | 14.44° C | 87% | 1012 hPa | 0 mm | - | 0 W/m² | - |
| 1778021260 | 14.44° C | 87% | 1012 hPa | 0 mm | - | 0 W/m² | - |
| 1778020360 | 15.56° C | 86% | 1012 hPa | 0 mm | - | 0 W/m² | - |
| 1778020061 | 15.56° C | 85% | 1012 hPa | 0 mm | - | 0 W/m² | - |
| 1778018860 | 16.67° C | 82% | 1011 hPa | 0 mm | - | 0 W/m² | - |
| 1778018260 | 17.78° C | 78% | 1011 hPa | 0 mm | - | 0 W/m² | - |
| 1778017960 | 18.33° C | 76% | 1011 hPa | 0 mm | - | 1 W/m² | - |
| 1778016760 | 20° C | 69% | 1011 hPa | 0 mm | - | 12 W/m² | - |
| 1778016463 | 20.56° C | 67% | 1011 hPa | 0 mm | - | 17 W/m² | - |
| 1778016160 | 21.11° C | 65% | 1011 hPa | 0 mm | - | 21 W/m² | - |
| 1778015560 | 21.11° C | 63% | 1011 hPa | 0 mm | - | 27 W/m² | - |
| 1778014060 | 22.78° C | 57% | 1010 hPa | 0 mm | - | 51 W/m² | - |
* Rain latest hour (hover to see other rain measurements)
** Current wind speed in m/s (hover to see current wind gust speed)